sensor_id;sensor_type;location;lat;lon;timestamp;temperature;humidity
6118;DHT22;3089;48.202;11.510;2022-08-19T00:01:38;20.90;99.90
6118;DHT22;3089;48.202;11.510;2022-08-19T00:04:08;20.80;99.90
6118;DHT22;3089;48.202;11.510;2022-08-19T00:06:37;20.70;99.90
6118;DHT22;3089;48.202;11.510;2022-08-19T00:09:10;20.80;99.90
6118;DHT22;3089;48.202;11.510;2022-08-19T00:11:38;20.90;99.90
6118;DHT22;3089;48.202;11.510;2022-08-19T00:14:08;20.90;99.90
6118;DHT22;3089;48.202;11.510;2022-08-19T00:16:37;20.90;99.90
6118;DHT22;3089;48.202;11.510;2022-08-19T00:19:05;20.90;99.90
6118;DHT22;3089;48.202;11.510;2022-08-19T00:21:34;20.80;99.90
6118;DHT22;3089;48.202;11.510;2022-08-19T00:24:05;20.70;99.90
6118;DHT22;3089;48.202;11.510;2022-08-19T00:26:35;20.70;99.90
6118;DHT22;3089;48.202;11.510;2022-08-19T00:29:03;20.80;99.90
6118;DHT22;3089;48.202;11.510;2022-08-19T00:31:31;20.70;99.90
6118;DHT22;3089;48.202;11.510;2022-08-19T00:33:59;20.80;99.90
6118;DHT22;3089;48.202;11.510;2022-08-19T00:36:27;20.80;99.90
6118;DHT22;3089;48.202;11.510;2022-08-19T00:38:56;20.80;99.90
6118;DHT22;3089;48.202;11.510;2022-08-19T00:41:25;20.70;99.90
6118;DHT22;3089;48.202;11.510;2022-08-19T00:44:00;20.70;99.90
6118;DHT22;3089;48.202;11.510;2022-08-19T00:46:28;20.80;99.90
6118;DHT22;3089;48.202;11.510;2022-08-19T00:48:56;20.80;99.90
6118;DHT22;3089;48.202;11.510;2022-08-19T00:51:26;20.80;99.90
6118;DHT22;3089;48.202;11.510;2022-08-19T00:53:55;20.70;99.90
6118;DHT22;3089;48.202;11.510;2022-08-19T00:56:24;20.60;99.90
6118;DHT22;3089;48.202;11.510;2022-08-19T00:58:54;20.70;99.90
6118;DHT22;3089;48.202;11.510;2022-08-19T01:01:25;20.60;99.90
6118;DHT22;3089;48.202;11.510;2022-08-19T01:03:53;20.50;99.90
6118;DHT22;3089;48.202;11.510;2022-08-19T01:06:24;20.50;99.90
6118;DHT22;3089;48.202;11.510;2022-08-19T01:08:53;20.50;99.90
6118;DHT22;3089;48.202;11.510;2022-08-19T01:11:21;20.50;99.90
6118;DHT22;3089;48.202;11.510;2022-08-19T01:13:50;20.50;99.90
6118;DHT22;3089;48.202;11.510;2022-08-19T01:16:21;20.40;99.90
6118;DHT22;3089;48.202;11.510;2022-08-19T01:18:53;20.30;99.90
6118;DHT22;3089;48.202;11.510;2022-08-19T01:21:26;20.30;99.90
6118;DHT22;3089;48.202;11.510;2022-08-19T01:23:58;20.10;99.90
6118;DHT22;3089;48.202;11.510;2022-08-19T01:26:26;20.20;99.90
6118;DHT22;3089;48.202;11.510;2022-08-19T01:28:58;20.20;99.90
6118;DHT22;3089;48.202;11.510;2022-08-19T01:31:28;19.80;99.90
6118;DHT22;3089;48.202;11.510;2022-08-19T01:34:00;20.10;99.90
6118;DHT22;3089;48.202;11.510;2022-08-19T01:36:31;20.40;99.90
6118;DHT22;3089;48.202;11.510;2022-08-19T01:39:01;20.40;99.90
6118;DHT22;3089;48.202;11.510;2022-08-19T01:41:30;20.00;99.90
6118;DHT22;3089;48.202;11.510;2022-08-19T01:43:57;20.30;99.90
6118;DHT22;3089;48.202;11.510;2022-08-19T01:46:44;20.30;99.90
6118;DHT22;3089;48.202;11.510;2022-08-19T01:49:14;20.30;99.90
6118;DHT22;3089;48.202;11.510;2022-08-19T01:51:42;20.40;99.90
6118;DHT22;3089;48.202;11.510;2022-08-19T01:54:12;20.30;99.90
6118;DHT22;3089;48.202;11.510;2022-08-19T01:56:57;20.40;99.90
6118;DHT22;3089;48.202;11.510;2022-08-19T01:59:25;20.50;99.90
6118;DHT22;3089;48.202;11.510;2022-08-19T02:01:53;20.40;99.90
6118;DHT22;3089;48.202;11.510;2022-08-19T02:04:21;20.40;99.90
6118;DHT22;3089;48.202;11.510;2022-08-19T02:06:49;20.40;99.90
6118;DHT22;3089;48.202;11.510;2022-08-19T02:09:19;20.40;99.90
6118;DHT22;3089;48.202;11.510;2022-08-19T02:11:46;20.30;99.90
6118;DHT22;3089;48.202;11.510;2022-08-19T02:14:14;20.40;99.90
6118;DHT22;3089;48.202;11.510;2022-08-19T02:16:42;20.30;99.90
6118;DHT22;3089;48.202;11.510;2022-08-19T02:19:10;20.40;99.90
6118;DHT22;3089;48.202;11.510;2022-08-19T02:21:38;20.40;99.90
6118;DHT22;3089;48.202;11.510;2022-08-19T02:24:06;20.40;99.90
6118;DHT22;3089;48.202;11.510;2022-08-19T02:26:36;20.40;99.90
6118;DHT22;3089;48.202;11.510;2022-08-19T02:29:03;20.40;99.90
6118;DHT22;3089;48.202;11.510;2022-08-19T02:31:31;20.30;99.90
6118;DHT22;3089;48.202;11.510;2022-08-19T02:33:59;20.30;99.90
6118;DHT22;3089;48.202;11.510;2022-08-19T02:36:27;20.20;99.90
6118;DHT22;3089;48.202;11.510;2022-08-19T02:38:56;20.30;99.90
6118;DHT22;3089;48.202;11.510;2022-08-19T02:41:26;20.30;99.90
6118;DHT22;3089;48.202;11.510;2022-08-19T02:43:56;20.30;99.90
6118;DHT22;3089;48.202;11.510;2022-08-19T02:46:46;20.20;99.90
6118;DHT22;3089;48.202;11.510;2022-08-19T02:49:18;20.20;99.90
6118;DHT22;3089;48.202;11.510;2022-08-19T02:51:46;20.20;99.90
6118;DHT22;3089;48.202;11.510;2022-08-19T02:54:15;20.10;99.90
6118;DHT22;3089;48.202;11.510;2022-08-19T02:56:44;20.30;99.90
6118;DHT22;3089;48.202;11.510;2022-08-19T02:59:13;20.20;99.90
6118;DHT22;3089;48.202;11.510;2022-08-19T03:01:41;20.20;99.90
6118;DHT22;3089;48.202;11.510;2022-08-19T03:04:11;20.00;99.90
6118;DHT22;3089;48.202;11.510;2022-08-19T03:06:40;20.10;99.90
6118;DHT22;3089;48.202;11.510;2022-08-19T03:09:08;20.10;99.90
6118;DHT22;3089;48.202;11.510;2022-08-19T03:11:36;20.20;99.90
6118;DHT22;3089;48.202;11.510;2022-08-19T03:14:06;20.10;99.90
6118;DHT22;3089;48.202;11.510;2022-08-19T03:16:43;20.20;99.90
6118;DHT22;3089;48.202;11.510;2022-08-19T03:19:11;20.10;99.90
6118;DHT22;3089;48.202;11.510;2022-08-19T03:21:39;20.00;99.90
6118;DHT22;3089;48.202;11.510;2022-08-19T03:24:08;20.00;99.90
6118;DHT22;3089;48.202;11.510;2022-08-19T03:26:39;20.00;99.90
6118;DHT22;3089;48.202;11.510;2022-08-19T03:29:07;20.00;99.90
6118;DHT22;3089;48.202;11.510;2022-08-19T03:31:41;20.10;99.90
6118;DHT22;3089;48.202;11.510;2022-08-19T03:34:21;20.10;99.90
6118;DHT22;3089;48.202;11.510;2022-08-19T03:36:53;20.10;99.90
6118;DHT22;3089;48.202;11.510;2022-08-19T03:39:22;20.00;99.90
6118;DHT22;3089;48.202;11.510;2022-08-19T03:41:52;20.00;99.90
6118;DHT22;3089;48.202;11.510;2022-08-19T03:44:43;19.90;99.90
6118;DHT22;3089;48.202;11.510;2022-08-19T03:47:13;19.80;99.90
6118;DHT22;3089;48.202;11.510;2022-08-19T03:49:43;19.90;99.90
6118;DHT22;3089;48.202;11.510;2022-08-19T03:52:12;20.00;99.90
6118;DHT22;3089;48.202;11.510;2022-08-19T03:54:41;20.00;99.90
6118;DHT22;3089;48.202;11.510;2022-08-19T03:57:09;19.70;99.90
6118;DHT22;3089;48.202;11.510;2022-08-19T03:59:38;19.80;99.90
6118;DHT22;3089;48.202;11.510;2022-08-19T04:02:09;19.70;99.90
6118;DHT22;3089;48.202;11.510;2022-08-19T04:04:41;19.90;99.90
6118;DHT22;3089;48.202;11.510;2022-08-19T04:07:12;19.70;99.90
6118;DHT22;3089;48.202;11.510;2022-08-19T04:09:42;19.70;99.90
6118;DHT22;3089;48.202;11.510;2022-08-19T04:12:10;19.60;99.90
6118;DHT22;3089;48.202;11.510;2022-08-19T04:14:39;19.70;99.90
6118;DHT22;3089;48.202;11.510;2022-08-19T04:17:07;19.90;99.90
6118;DHT22;3089;48.202;11.510;2022-08-19T04:19:35;19.90;99.90
6118;DHT22;3089;48.202;11.510;2022-08-19T04:22:05;19.90;99.90
6118;DHT22;3089;48.202;11.510;2022-08-19T04:24:35;19.90;99.90
6118;DHT22;3089;48.202;11.510;2022-08-19T04:27:04;19.90;99.90
6118;DHT22;3089;48.202;11.510;2022-08-19T04:29:32;19.80;99.90
6118;DHT22;3089;48.202;11.510;2022-08-19T04:32:01;19.90;99.90
6118;DHT22;3089;48.202;11.510;2022-08-19T04:34:35;19.90;99.90
6118;DHT22;3089;48.202;11.510;2022-08-19T04:37:25;19.90;99.90
6118;DHT22;3089;48.202;11.510;2022-08-19T04:40:03;19.90;99.90
6118;DHT22;3089;48.202;11.510;2022-08-19T04:42:48;20.00;99.90
6118;DHT22;3089;48.202;11.510;2022-08-19T04:45:16;19.90;99.90
6118;DHT22;3089;48.202;11.510;2022-08-19T04:47:44;19.90;99.90
6118;DHT22;3089;48.202;11.510;2022-08-19T04:50:24;20.00;99.90
6118;DHT22;3089;48.202;11.510;2022-08-19T04:52:53;20.00;99.90
6118;DHT22;3089;48.202;11.510;2022-08-19T04:55:22;20.00;99.90
6118;DHT22;3089;48.202;11.510;2022-08-19T04:57:52;19.90;99.90
6118;DHT22;3089;48.202;11.510;2022-08-19T05:00:20;19.90;99.90
6118;DHT22;3089;48.202;11.510;2022-08-19T05:02:48;19.90;99.90
6118;DHT22;3089;48.202;11.510;2022-08-19T05:05:16;20.00;99.90
6118;DHT22;3089;48.202;11.510;2022-08-19T05:07:44;19.90;99.90
6118;DHT22;3089;48.202;11.510;2022-08-19T05:10:13;19.90;99.90
6118;DHT22;3089;48.202;11.510;2022-08-19T05:12:41;19.90;99.90
6118;DHT22;3089;48.202;11.510;2022-08-19T05:15:09;19.90;99.90
6118;DHT22;3089;48.202;11.510;2022-08-19T05:17:37;19.90;99.90
6118;DHT22;3089;48.202;11.510;2022-08-19T05:20:25;20.00;99.90
6118;DHT22;3089;48.202;11.510;2022-08-19T05:23:10;19.90;99.90
6118;DHT22;3089;48.202;11.510;2022-08-19T05:25:49;19.80;99.90
6118;DHT22;3089;48.202;11.510;2022-08-19T05:28:18;19.90;99.90
6118;DHT22;3089;48.202;11.510;2022-08-19T05:30:46;19.90;99.90
6118;DHT22;3089;48.202;11.510;2022-08-19T05:33:14;19.90;99.90
6118;DHT22;3089;48.202;11.510;2022-08-19T05:35:42;19.80;99.90
6118;DHT22;3089;48.202;11.510;2022-08-19T05:38:11;19.80;99.90
6118;DHT22;3089;48.202;11.510;2022-08-19T05:40:39;19.90;99.90
6118;DHT22;3089;48.202;11.510;2022-08-19T05:43:09;19.80;99.90
6118;DHT22;3089;48.202;11.510;2022-08-19T05:45:41;19.80;99.90
6118;DHT22;3089;48.202;11.510;2022-08-19T05:48:10;19.70;99.90
6118;DHT22;3089;48.202;11.510;2022-08-19T05:50:39;19.70;99.90
6118;DHT22;3089;48.202;11.510;2022-08-19T05:53:07;19.70;99.90
6118;DHT22;3089;48.202;11.510;2022-08-19T05:55:36;19.70;99.90
6118;DHT22;3089;48.202;11.510;2022-08-19T05:58:05;19.70;99.90
6118;DHT22;3089;48.202;11.510;2022-08-19T06:00:37;19.70;99.90
6118;DHT22;3089;48.202;11.510;2022-08-19T06:03:05;19.90;99.90
6118;DHT22;3089;48.202;11.510;2022-08-19T06:05:39;19.80;99.90
6118;DHT22;3089;48.202;11.510;2022-08-19T06:08:18;19.80;99.90
6118;DHT22;3089;48.202;11.510;2022-08-19T06:11:12;19.80;99.90
6118;DHT22;3089;48.202;11.510;2022-08-19T06:13:41;19.80;99.90
6118;DHT22;3089;48.202;11.510;2022-08-19T06:16:10;19.80;99.90
6118;DHT22;3089;48.202;11.510;2022-08-19T06:18:38;19.80;99.90
6118;DHT22;3089;48.202;11.510;2022-08-19T06:21:06;19.80;99.90
6118;DHT22;3089;48.202;11.510;2022-08-19T06:23:34;19.80;99.90
6118;DHT22;3089;48.202;11.510;2022-08-19T06:26:02;19.80;99.90
6118;DHT22;3089;48.202;11.510;2022-08-19T06:28:30;19.80;99.90
6118;DHT22;3089;48.202;11.510;2022-08-19T06:31:00;19.80;99.90
6118;DHT22;3089;48.202;11.510;2022-08-19T06:33:34;19.70;99.90
6118;DHT22;3089;48.202;11.510;2022-08-19T06:36:02;19.70;99.90
6118;DHT22;3089;48.202;11.510;2022-08-19T06:38:31;19.70;99.90
6118;DHT22;3089;48.202;11.510;2022-08-19T06:41:01;19.80;99.90
6118;DHT22;3089;48.202;11.510;2022-08-19T06:43:33;19.80;99.90
6118;DHT22;3089;48.202;11.510;2022-08-19T06:46:11;19.80;99.90
6118;DHT22;3089;48.202;11.510;2022-08-19T06:48:41;19.80;99.90
6118;DHT22;3089;48.202;11.510;2022-08-19T06:51:12;19.80;99.90
6118;DHT22;3089;48.202;11.510;2022-08-19T06:53:45;19.80;99.90
6118;DHT22;3089;48.202;11.510;2022-08-19T06:56:15;19.80;99.90
6118;DHT22;3089;48.202;11.510;2022-08-19T06:58:43;19.80;99.90
6118;DHT22;3089;48.202;11.510;2022-08-19T07:01:12;19.90;99.90
6118;DHT22;3089;48.202;11.510;2022-08-19T07:03:42;19.90;99.90
6118;DHT22;3089;48.202;11.510;2022-08-19T07:06:13;19.90;99.90
6118;DHT22;3089;48.202;11.510;2022-08-19T07:09:04;19.90;99.90
6118;DHT22;3089;48.202;11.510;2022-08-19T07:11:32;19.80;99.90
6118;DHT22;3089;48.202;11.510;2022-08-19T07:14:01;19.80;99.90
6118;DHT22;3089;48.202;11.510;2022-08-19T07:16:29;19.80;99.90
6118;DHT22;3089;48.202;11.510;2022-08-19T07:18:59;19.80;99.90
6118;DHT22;3089;48.202;11.510;2022-08-19T07:21:41;19.70;99.90
6118;DHT22;3089;48.202;11.510;2022-08-19T07:24:09;19.70;99.90
6118;DHT22;3089;48.202;11.510;2022-08-19T07:26:42;19.70;99.90
6118;DHT22;3089;48.202;11.510;2022-08-19T07:29:11;19.30;99.90
6118;DHT22;3089;48.202;11.510;2022-08-19T07:31:39;19.30;99.90
6118;DHT22;3089;48.202;11.510;2022-08-19T07:34:13;19.40;99.90
6118;DHT22;3089;48.202;11.510;2022-08-19T07:36:43;19.50;99.90
6118;DHT22;3089;48.202;11.510;2022-08-19T07:39:13;19.50;99.90
6118;DHT22;3089;48.202;11.510;2022-08-19T07:41:41;19.50;99.90
6118;DHT22;3089;48.202;11.510;2022-08-19T07:44:10;19.50;99.90
6118;DHT22;3089;48.202;11.510;2022-08-19T07:46:41;19.60;99.90
6118;DHT22;3089;48.202;11.510;2022-08-19T07:49:14;19.60;99.90
6118;DHT22;3089;48.202;11.510;2022-08-19T07:51:45;19.90;99.90
6118;DHT22;3089;48.202;11.510;2022-08-19T07:54:13;19.40;99.90
6118;DHT22;3089;48.202;11.510;2022-08-19T07:56:41;19.60;99.90
6118;DHT22;3089;48.202;11.510;2022-08-19T07:59:09;19.60;99.90
6118;DHT22;3089;48.202;11.510;2022-08-19T08:01:37;19.60;99.90
6118;DHT22;3089;48.202;11.510;2022-08-19T08:04:07;19.50;99.90
6118;DHT22;3089;48.202;11.510;2022-08-19T08:06:54;19.60;99.90
6118;DHT22;3089;48.202;11.510;2022-08-19T08:09:42;19.30;99.90
6118;DHT22;3089;48.202;11.510;2022-08-19T08:12:18;19.60;99.90
6118;DHT22;3089;48.202;11.510;2022-08-19T08:15:03;19.80;99.90
6118;DHT22;3089;48.202;11.510;2022-08-19T08:17:34;19.90;99.90
6118;DHT22;3089;48.202;11.510;2022-08-19T08:20:15;19.80;99.90
6118;DHT22;3089;48.202;11.510;2022-08-19T08:22:47;19.70;99.90
6118;DHT22;3089;48.202;11.510;2022-08-19T08:25:33;19.80;99.90
6118;DHT22;3089;48.202;11.510;2022-08-19T08:28:02;19.90;99.90
6118;DHT22;3089;48.202;11.510;2022-08-19T08:30:30;19.90;99.90
6118;DHT22;3089;48.202;11.510;2022-08-19T08:32:59;19.90;99.90
6118;DHT22;3089;48.202;11.510;2022-08-19T08:35:28;19.90;99.90
6118;DHT22;3089;48.202;11.510;2022-08-19T08:37:57;19.90;99.90
6118;DHT22;3089;48.202;11.510;2022-08-19T08:40:29;19.90;99.90
6118;DHT22;3089;48.202;11.510;2022-08-19T08:43:04;20.00;99.90
6118;DHT22;3089;48.202;11.510;2022-08-19T08:45:43;20.00;99.90
6118;DHT22;3089;48.202;11.510;2022-08-19T08:48:22;20.00;99.90
6118;DHT22;3089;48.202;11.510;2022-08-19T08:50:53;20.00;99.90
6118;DHT22;3089;48.202;11.510;2022-08-19T08:53:24;20.10;99.90
6118;DHT22;3089;48.202;11.510;2022-08-19T08:55:59;20.00;99.90
6118;DHT22;3089;48.202;11.510;2022-08-19T08:58:36;20.10;99.90
6118;DHT22;3089;48.202;11.510;2022-08-19T09:01:10;20.10;99.90
6118;DHT22;3089;48.202;11.510;2022-08-19T09:03:40;20.10;99.90
6118;DHT22;3089;48.202;11.510;2022-08-19T09:06:14;20.10;99.90
6118;DHT22;3089;48.202;11.510;2022-08-19T09:09:03;20.00;99.90
6118;DHT22;3089;48.202;11.510;2022-08-19T09:11:46;20.00;99.90
6118;DHT22;3089;48.202;11.510;2022-08-19T09:14:24;20.10;99.90
6118;DHT22;3089;48.202;11.510;2022-08-19T09:17:15;20.10;99.90
6118;DHT22;3089;48.202;11.510;2022-08-19T09:19:55;20.00;99.90
6118;DHT22;3089;48.202;11.510;2022-08-19T09:22:23;20.00;99.90
6118;DHT22;3089;48.202;11.510;2022-08-19T09:24:54;20.00;99.90
6118;DHT22;3089;48.202;11.510;2022-08-19T09:27:23;20.00;99.90
6118;DHT22;3089;48.202;11.510;2022-08-19T09:30:11;20.00;99.90
6118;DHT22;3089;48.202;11.510;2022-08-19T09:32:41;20.00;99.90
6118;DHT22;3089;48.202;11.510;2022-08-19T09:35:11;20.00;99.90
6118;DHT22;3089;48.202;11.510;2022-08-19T09:37:41;20.00;99.90
6118;DHT22;3089;48.202;11.510;2022-08-19T09:40:11;20.00;99.90
6118;DHT22;3089;48.202;11.510;2022-08-19T09:42:41;20.00;99.90
6118;DHT22;3089;48.202;11.510;2022-08-19T09:45:18;20.00;99.90
6118;DHT22;3089;48.202;11.510;2022-08-19T09:47:47;20.00;99.90
6118;DHT22;3089;48.202;11.510;2022-08-19T09:50:16;20.00;99.90
6118;DHT22;3089;48.202;11.510;2022-08-19T09:52:45;20.00;99.90
6118;DHT22;3089;48.202;11.510;2022-08-19T09:55:25;20.00;99.90
6118;DHT22;3089;48.202;11.510;2022-08-19T09:58:00;19.90;99.90
6118;DHT22;3089;48.202;11.510;2022-08-19T10:00:28;20.00;99.90
6118;DHT22;3089;48.202;11.510;2022-08-19T10:02:57;20.00;99.90
6118;DHT22;3089;48.202;11.510;2022-08-19T10:05:27;20.00;99.90
6118;DHT22;3089;48.202;11.510;2022-08-19T10:08:15;20.00;99.90
6118;DHT22;3089;48.202;11.510;2022-08-19T10:10:45;20.10;99.90
6118;DHT22;3089;48.202;11.510;2022-08-19T10:13:15;20.20;99.90
6118;DHT22;3089;48.202;11.510;2022-08-19T10:15:43;20.20;99.90
6118;DHT22;3089;48.202;11.510;2022-08-19T10:18:14;20.30;99.90
6118;DHT22;3089;48.202;11.510;2022-08-19T10:20:43;20.30;99.90
6118;DHT22;3089;48.202;11.510;2022-08-19T10:23:17;20.30;99.90
6118;DHT22;3089;48.202;11.510;2022-08-19T10:25:46;20.30;99.90
6118;DHT22;3089;48.202;11.510;2022-08-19T10:28:15;20.30;99.90
6118;DHT22;3089;48.202;11.510;2022-08-19T10:30:45;20.30;99.90
6118;DHT22;3089;48.202;11.510;2022-08-19T10:33:14;20.50;99.90
6118;DHT22;3089;48.202;11.510;2022-08-19T10:36:04;20.60;99.90
6118;DHT22;3089;48.202;11.510;2022-08-19T10:38:32;20.80;99.90
6118;DHT22;3089;48.202;11.510;2022-08-19T10:41:08;20.80;99.90
6118;DHT22;3089;48.202;11.510;2022-08-19T10:43:36;21.10;99.90
6118;DHT22;3089;48.202;11.510;2022-08-19T10:46:07;21.30;99.90
6118;DHT22;3089;48.202;11.510;2022-08-19T10:48:42;21.50;99.90
6118;DHT22;3089;48.202;11.510;2022-08-19T10:51:10;21.50;99.90
6118;DHT22;3089;48.202;11.510;2022-08-19T10:53:57;21.60;99.90
6118;DHT22;3089;48.202;11.510;2022-08-19T10:56:27;21.80;99.90
6118;DHT22;3089;48.202;11.510;2022-08-19T10:59:13;21.80;99.90
6118;DHT22;3089;48.202;11.510;2022-08-19T11:01:43;21.70;99.90
6118;DHT22;3089;48.202;11.510;2022-08-19T11:04:12;21.80;99.90
6118;DHT22;3089;48.202;11.510;2022-08-19T11:06:43;21.60;99.90
6118;DHT22;3089;48.202;11.510;2022-08-19T11:09:14;21.50;99.90
6118;DHT22;3089;48.202;11.510;2022-08-19T11:11:43;21.40;99.90
6118;DHT22;3089;48.202;11.510;2022-08-19T11:14:13;21.20;99.90
6118;DHT22;3089;48.202;11.510;2022-08-19T11:16:42;21.10;99.90
6118;DHT22;3089;48.202;11.510;2022-08-19T11:19:11;21.10;99.90
6118;DHT22;3089;48.202;11.510;2022-08-19T11:21:41;21.30;99.90
6118;DHT22;3089;48.202;11.510;2022-08-19T11:24:11;21.40;99.90
6118;DHT22;3089;48.202;11.510;2022-08-19T11:26:43;21.40;99.90
6118;DHT22;3089;48.202;11.510;2022-08-19T11:29:13;21.40;99.90
6118;DHT22;3089;48.202;11.510;2022-08-19T11:31:44;21.40;99.90
6118;DHT22;3089;48.202;11.510;2022-08-19T11:34:16;21.30;99.90
6118;DHT22;3089;48.202;11.510;2022-08-19T11:36:46;21.30;99.90
6118;DHT22;3089;48.202;11.510;2022-08-19T11:39:17;21.20;99.90
6118;DHT22;3089;48.202;11.510;2022-08-19T11:41:47;21.20;99.90
6118;DHT22;3089;48.202;11.510;2022-08-19T11:44:15;21.20;99.90
6118;DHT22;3089;48.202;11.510;2022-08-19T11:46:44;21.20;99.90
6118;DHT22;3089;48.202;11.510;2022-08-19T11:49:13;21.20;99.90
6118;DHT22;3089;48.202;11.510;2022-08-19T11:51:42;21.40;99.90
6118;DHT22;3089;48.202;11.510;2022-08-19T11:54:11;21.40;99.90
6118;DHT22;3089;48.202;11.510;2022-08-19T11:56:40;21.40;99.90
6118;DHT22;3089;48.202;11.510;2022-08-19T11:59:09;21.30;99.90
6118;DHT22;3089;48.202;11.510;2022-08-19T12:01:41;20.90;99.90
6118;DHT22;3089;48.202;11.510;2022-08-19T12:04:10;21.00;99.90
6118;DHT22;3089;48.202;11.510;2022-08-19T12:06:39;21.10;99.90
6118;DHT22;3089;48.202;11.510;2022-08-19T12:09:09;21.10;99.90
6118;DHT22;3089;48.202;11.510;2022-08-19T12:11:38;21.10;99.90
6118;DHT22;3089;48.202;11.510;2022-08-19T12:14:08;21.00;99.90
6118;DHT22;3089;48.202;11.510;2022-08-19T12:16:44;21.10;99.90
6118;DHT22;3089;48.202;11.510;2022-08-19T12:19:18;21.40;99.90
6118;DHT22;3089;48.202;11.510;2022-08-19T12:21:49;21.40;99.90
6118;DHT22;3089;48.202;11.510;2022-08-19T12:24:17;21.60;99.90
6118;DHT22;3089;48.202;11.510;2022-08-19T12:26:49;21.70;99.90
6118;DHT22;3089;48.202;11.510;2022-08-19T12:29:19;21.70;99.90
6118;DHT22;3089;48.202;11.510;2022-08-19T12:31:51;21.90;99.90
6118;DHT22;3089;48.202;11.510;2022-08-19T12:34:19;21.90;99.90
6118;DHT22;3089;48.202;11.510;2022-08-19T12:36:47;21.80;99.90
6118;DHT22;3089;48.202;11.510;2022-08-19T12:39:16;21.80;99.90
6118;DHT22;3089;48.202;11.510;2022-08-19T12:41:43;21.60;99.90
6118;DHT22;3089;48.202;11.510;2022-08-19T12:44:21;21.60;99.90
6118;DHT22;3089;48.202;11.510;2022-08-19T12:47:00;21.50;99.90
6118;DHT22;3089;48.202;11.510;2022-08-19T12:49:31;21.60;99.90
6118;DHT22;3089;48.202;11.510;2022-08-19T12:52:20;21.70;99.90
6118;DHT22;3089;48.202;11.510;2022-08-19T12:54:49;21.80;99.90
6118;DHT22;3089;48.202;11.510;2022-08-19T12:57:20;21.80;99.90
6118;DHT22;3089;48.202;11.510;2022-08-19T12:59:58;21.90;99.90
6118;DHT22;3089;48.202;11.510;2022-08-19T13:02:27;22.30;99.90
6118;DHT22;3089;48.202;11.510;2022-08-19T13:04:55;22.40;99.90
6118;DHT22;3089;48.202;11.510;2022-08-19T13:07:23;22.50;99.90
6118;DHT22;3089;48.202;11.510;2022-08-19T13:09:51;22.70;99.90
6118;DHT22;3089;48.202;11.510;2022-08-19T13:12:19;22.70;99.90
6118;DHT22;3089;48.202;11.510;2022-08-19T13:14:50;22.70;99.90
6118;DHT22;3089;48.202;11.510;2022-08-19T13:17:19;22.60;99.90
6118;DHT22;3089;48.202;11.510;2022-08-19T13:19:48;22.20;99.90
6118;DHT22;3089;48.202;11.510;2022-08-19T13:22:17;21.90;99.90
6118;DHT22;3089;48.202;11.510;2022-08-19T13:24:45;22.20;99.90
6118;DHT22;3089;48.202;11.510;2022-08-19T13:27:14;21.90;99.90
6118;DHT22;3089;48.202;11.510;2022-08-19T13:29:42;21.90;99.90
6118;DHT22;3089;48.202;11.510;2022-08-19T13:32:29;21.80;99.90
6118;DHT22;3089;48.202;11.510;2022-08-19T13:35:16;21.60;99.90
6118;DHT22;3089;48.202;11.510;2022-08-19T13:37:44;21.70;99.90
6118;DHT22;3089;48.202;11.510;2022-08-19T13:40:15;21.40;99.90
6118;DHT22;3089;48.202;11.510;2022-08-19T13:42:47;21.60;99.90
6118;DHT22;3089;48.202;11.510;2022-08-19T13:45:16;21.60;99.90
6118;DHT22;3089;48.202;11.510;2022-08-19T13:47:45;21.10;99.90
6118;DHT22;3089;48.202;11.510;2022-08-19T13:50:17;21.00;99.90
6118;DHT22;3089;48.202;11.510;2022-08-19T13:52:45;21.10;99.90
6118;DHT22;3089;48.202;11.510;2022-08-19T13:55:14;21.10;99.90
6118;DHT22;3089;48.202;11.510;2022-08-19T13:57:51;21.70;99.90
6118;DHT22;3089;48.202;11.510;2022-08-19T14:00:21;22.10;99.90
6118;DHT22;3089;48.202;11.510;2022-08-19T14:02:52;22.20;99.90
6118;DHT22;3089;48.202;11.510;2022-08-19T14:05:22;22.20;99.90
6118;DHT22;3089;48.202;11.510;2022-08-19T14:07:50;22.40;99.90
6118;DHT22;3089;48.202;11.510;2022-08-19T14:10:20;22.00;99.90
6118;DHT22;3089;48.202;11.510;2022-08-19T14:12:53;21.90;99.90
6118;DHT22;3089;48.202;11.510;2022-08-19T14:15:22;21.90;99.90
6118;DHT22;3089;48.202;11.510;2022-08-19T14:17:51;21.50;99.90
6118;DHT22;3089;48.202;11.510;2022-08-19T14:20:19;21.60;99.90
6118;DHT22;3089;48.202;11.510;2022-08-19T14:22:53;21.60;99.90
6118;DHT22;3089;48.202;11.510;2022-08-19T14:25:24;21.50;99.90
6118;DHT22;3089;48.202;11.510;2022-08-19T14:27:53;21.60;99.90
6118;DHT22;3089;48.202;11.510;2022-08-19T14:30:23;21.40;99.90
6118;DHT22;3089;48.202;11.510;2022-08-19T14:32:53;21.20;99.90
6118;DHT22;3089;48.202;11.510;2022-08-19T14:35:22;21.40;99.90
6118;DHT22;3089;48.202;11.510;2022-08-19T14:37:50;21.50;99.90
6118;DHT22;3089;48.202;11.510;2022-08-19T14:40:25;21.70;99.90
6118;DHT22;3089;48.202;11.510;2022-08-19T14:42:54;21.70;99.90
6118;DHT22;3089;48.202;11.510;2022-08-19T14:45:27;21.30;99.90
6118;DHT22;3089;48.202;11.510;2022-08-19T14:47:55;21.40;99.90
6118;DHT22;3089;48.202;11.510;2022-08-19T14:50:23;21.60;99.90
6118;DHT22;3089;48.202;11.510;2022-08-19T14:52:58;22.00;99.90
6118;DHT22;3089;48.202;11.510;2022-08-19T14:55:29;22.10;99.90
6118;DHT22;3089;48.202;11.510;2022-08-19T14:57:58;22.10;99.90
6118;DHT22;3089;48.202;11.510;2022-08-19T15:00:28;21.80;99.90
6118;DHT22;3089;48.202;11.510;2022-08-19T15:02:56;21.90;99.90
6118;DHT22;3089;48.202;11.510;2022-08-19T15:05:23;21.60;99.90
6118;DHT22;3089;48.202;11.510;2022-08-19T15:07:51;21.70;99.90
6118;DHT22;3089;48.202;11.510;2022-08-19T15:10:21;21.80;99.90
6118;DHT22;3089;48.202;11.510;2022-08-19T15:12:52;21.60;99.90
6118;DHT22;3089;48.202;11.510;2022-08-19T15:15:21;21.60;99.90
6118;DHT22;3089;48.202;11.510;2022-08-19T15:17:49;21.10;99.90
6118;DHT22;3089;48.202;11.510;2022-08-19T15:20:19;21.10;99.90
6118;DHT22;3089;48.202;11.510;2022-08-19T15:22:47;20.90;99.90
6118;DHT22;3089;48.202;11.510;2022-08-19T15:25:17;21.00;99.90
6118;DHT22;3089;48.202;11.510;2022-08-19T15:27:47;21.10;99.90
6118;DHT22;3089;48.202;11.510;2022-08-19T15:30:20;21.00;99.90
6118;DHT22;3089;48.202;11.510;2022-08-19T15:32:49;21.20;99.90
6118;DHT22;3089;48.202;11.510;2022-08-19T15:35:19;21.20;99.90
6118;DHT22;3089;48.202;11.510;2022-08-19T15:37:48;21.30;99.90
6118;DHT22;3089;48.202;11.510;2022-08-19T15:40:17;21.20;99.90
6118;DHT22;3089;48.202;11.510;2022-08-19T15:42:45;21.00;99.90
6118;DHT22;3089;48.202;11.510;2022-08-19T15:45:18;21.10;99.90
6118;DHT22;3089;48.202;11.510;2022-08-19T15:47:47;21.30;99.90
6118;DHT22;3089;48.202;11.510;2022-08-19T15:50:17;21.50;99.90
6118;DHT22;3089;48.202;11.510;2022-08-19T15:52:48;21.50;99.90
6118;DHT22;3089;48.202;11.510;2022-08-19T15:55:17;21.50;99.90
6118;DHT22;3089;48.202;11.510;2022-08-19T15:57:59;21.50;99.90
6118;DHT22;3089;48.202;11.510;2022-08-19T16:00:56;21.30;99.90
6118;DHT22;3089;48.202;11.510;2022-08-19T16:03:46;21.40;99.90
6118;DHT22;3089;48.202;11.510;2022-08-19T16:06:41;21.50;99.90
6118;DHT22;3089;48.202;11.510;2022-08-19T16:09:09;21.50;99.90
6118;DHT22;3089;48.202;11.510;2022-08-19T16:11:38;21.50;99.90